Terminal Aerodrome Forecast
Issued by NWS

Home | Current Version | Previous Version | Text Only | Print | Product List | Glossary On
Versions: 1 2 3 4 5 6 7 8 9 10 11 12 13 14 15 16
000
FTAK31 PANC 251740
TAFADU
TAF
PADU 251740Z 2518/2618 14018G28KT 6SM -RA OVC020
     FM252100 17010G18KT P6SM -SHRA OVC020
     FM260300 21008KT P6SM BKN035=

USA.gov is the U.S. government's official web portal to all federal, state and local government web resources and services.